German Valley, Illinois
Current Conditions -  °F | °C
As of 10:35 AM on Wednesday 22 Oct 2014 (Local Time) from KFEP Reporting Station
Clear Clear  
Wind Chill: 43°   Ceiling: Unl
Heat Index: 47°   Visibility: 10mi
Dew Point: 40°   Wind: 8mph
Humidity: 78%   Direction: 120°ESE
Pressure: 30.37"   Gusts: NA
Location:  42.22°N, 89.47°W
Report Text: KFEP 221535Z AUTO 12007KT 10SM CLR 08/05 A3037 RMK AO2 T00820046
Loading
Personal Weather Stations






























Interactive Weather Map
Tropical Storm Tracking
New forecast layout! Learn more

10-Day Weather Forecast

Advertisements
Track Severe Weather on mobile